Tembisa, South Africa
Current Conditions -  °F | °C
As of 1:00 AM on Monday 22 Dec 2014 (Local Time) from FAOR Reporting Station
Clear Clear  
Wind Chill: 66°   Ceiling: Unl
Heat Index: 66°   Visibility: 6mi
Dew Point: 52°   Wind: 9mph
Humidity: 60%   Direction: 330°NNW
Pressure: 30.18"   Gusts: NA
Location:  25.99°S, 28.22°E
Report Text: FAOR 212300Z 33008KT CAVOK 19/11 Q1022 NOSIG
Loading
Personal Weather Stations






























Interactive Weather Map New forecast layout! Learn more

10-Day Weather Forecast

Advertisements
Track Severe Weather on mobile